Donald, Georgia
Current Conditions -  °F | °C
As of 11:08 PM on Saturday 20 Dec 2014 (Local Time) from KLHW Reporting Station
Light Rain Light Rain  
Wind Chill: 54°   Ceiling: 600
Heat Index: 54°   Visibility: 10mi
Dew Point: 52°   Wind: 8mph
Humidity: 94%   Direction: 20°NNE
Pressure: 30.17"   Gusts: NA
Location:  31.755°N, 81.7451°W
Report Text: KLHW 210408Z AUTO 02007KT 10SM -RA OVC006 12/11 A3017 RMK AO2
Loading
Personal Weather Stations






























Interactive Weather Map New forecast layout! Learn more

10-Day Weather Forecast

Advertisements
Track Severe Weather on mobile